createdAt,value
2019-03-12T00:00:32.876Z,2.10
2019-03-12T00:03:04.904Z,2.10
2019-03-12T00:05:34.710Z,2.10
2019-03-12T00:08:03.701Z,2.10
2019-03-12T00:10:32.831Z,2.10
2019-03-12T00:13:04.587Z,2.10
2019-03-12T00:15:33.839Z,2.00
2019-03-12T00:18:03.084Z,2.00
2019-03-12T00:20:32.572Z,2.00
2019-03-12T00:23:04.831Z,2.00
2019-03-12T00:25:34.588Z,1.90
2019-03-12T00:28:03.555Z,1.90
2019-03-12T00:30:32.843Z,1.90
2019-03-12T00:33:02.349Z,1.90
2019-03-12T00:35:31.546Z,1.90
2019-03-12T00:38:01.663Z,1.90
2019-03-12T00:40:31.004Z,1.90
2019-03-12T00:42:59.825Z,2.00
2019-03-12T00:45:30.176Z,2.00
2019-03-12T00:47:59.276Z,2.10
2019-03-12T00:50:28.607Z,2.10
2019-03-12T00:52:57.844Z,2.20
2019-03-12T00:55:27.307Z,2.10
2019-03-12T00:57:56.936Z,2.10
2019-03-12T01:00:26.495Z,2.20
2019-03-12T01:02:55.692Z,2.20
2019-03-12T01:05:24.979Z,2.30
2019-03-12T01:07:54.631Z,2.20
2019-03-12T01:10:23.996Z,2.10
2019-03-12T01:12:53.195Z,2.10
2019-03-12T01:15:22.199Z,2.10
2019-03-12T01:17:51.797Z,2.00
2019-03-12T01:20:20.781Z,1.90
2019-03-12T01:22:49.948Z,1.90
2019-03-12T01:25:19.139Z,1.90
2019-03-12T01:27:48.688Z,1.90
2019-03-12T01:30:18.393Z,2.10
2019-03-12T01:32:47.351Z,2.10
2019-03-12T01:35:16.311Z,2.10
2019-03-12T01:37:46.088Z,2.20
2019-03-12T01:40:15.960Z,2.20
2019-03-12T01:42:45.103Z,2.20
2019-03-12T01:45:14.835Z,2.20
2019-03-12T01:47:44.253Z,2.20
2019-03-12T01:50:13.413Z,2.20
2019-03-12T01:52:43.024Z,2.20
2019-03-12T01:55:12.623Z,2.20
2019-03-12T01:57:41.740Z,2.10
2019-03-12T02:00:13.172Z,2.10
2019-03-12T02:02:42.404Z,2.00
2019-03-12T02:05:11.700Z,2.00
2019-03-12T02:07:40.576Z,2.00
2019-03-12T02:10:09.875Z,2.00
2019-03-12T02:12:39.156Z,2.00
2019-03-12T02:15:09.924Z,2.00
2019-03-12T02:17:39.019Z,2.10
2019-03-12T02:20:10.740Z,2.10
2019-03-12T02:22:41.283Z,2.10
2019-03-12T02:25:11.787Z,2.10
2019-03-12T02:27:40.942Z,2.10
2019-03-12T02:30:12.553Z,2.20
2019-03-12T02:32:44.488Z,2.10
2019-03-12T02:35:13.930Z,2.10
2019-03-12T02:37:42.899Z,2.20
2019-03-12T02:40:11.880Z,2.10
2019-03-12T02:42:41.523Z,2.20
2019-03-12T02:45:10.739Z,2.20
2019-03-12T02:47:39.988Z,2.10
2019-03-12T02:50:10.039Z,2.20
2019-03-12T02:52:39.641Z,2.20
2019-03-12T02:55:08.946Z,2.20
2019-03-12T02:57:38.401Z,2.10
2019-03-12T03:00:14.023Z,2.20
2019-03-12T03:02:43.807Z,2.30
2019-03-12T03:05:13.151Z,2.30
2019-03-12T03:07:51.084Z,2.20
2019-03-12T03:10:20.465Z,2.10
2019-03-12T03:12:49.331Z,2.10
2019-03-12T03:15:30.587Z,2.10
2019-03-12T03:17:59.697Z,2.10
2019-03-12T03:20:28.979Z,2.00
2019-03-12T03:22:58.685Z,2.00
2019-03-12T03:25:27.820Z,1.90
2019-03-12T03:27:57.705Z,1.80
2019-03-12T03:30:27.603Z,1.80
2019-03-12T03:32:57.501Z,1.80
2019-03-12T03:35:27.275Z,1.80
2019-03-12T03:37:56.469Z,1.80
2019-03-12T03:40:26.066Z,1.80
2019-03-12T03:42:55.404Z,1.80
2019-03-12T03:45:24.241Z,1.80
2019-03-12T03:47:53.850Z,1.90
2019-03-12T03:50:23.140Z,1.80
2019-03-12T03:52:52.241Z,1.80
2019-03-12T03:55:21.536Z,1.80
2019-03-12T03:57:50.787Z,1.90
2019-03-12T04:00:21.038Z,1.90
2019-03-12T04:02:50.265Z,1.90
2019-03-12T04:05:19.671Z,1.90
2019-03-12T04:07:49.503Z,2.00
2019-03-12T04:10:18.744Z,2.10
2019-03-12T04:12:47.726Z,2.10
2019-03-12T04:15:16.820Z,2.00
2019-03-12T04:17:46.365Z,2.00
2019-03-12T04:20:16.213Z,1.90
2019-03-12T04:22:45.509Z,1.90
2019-03-12T04:25:14.595Z,1.90
2019-03-12T04:27:43.514Z,2.00
2019-03-12T04:30:13.333Z,2.10
2019-03-12T04:32:42.617Z,2.10
2019-03-12T04:35:13.280Z,2.10
2019-03-12T04:37:42.428Z,2.10
2019-03-12T04:40:11.799Z,2.20
2019-03-12T04:42:40.624Z,2.10
2019-03-12T04:45:11.836Z,2.20
2019-03-12T04:47:41.071Z,2.20
2019-03-12T04:50:11.009Z,2.20
2019-03-12T04:52:40.147Z,2.20
2019-03-12T04:55:09.475Z,2.30
2019-03-12T04:57:38.968Z,2.30
2019-03-12T05:00:10.616Z,2.30
2019-03-12T05:02:39.846Z,2.40
2019-03-12T05:05:09.103Z,2.30
2019-03-12T05:07:38.031Z,2.40
2019-03-12T05:10:07.539Z,2.20
2019-03-12T05:12:37.367Z,2.30
2019-03-12T05:15:08.548Z,2.20
2019-03-12T05:17:37.379Z,2.20
2019-03-12T05:20:08.359Z,2.30
2019-03-12T05:22:37.799Z,2.40
2019-03-12T05:25:07.839Z,2.30
2019-03-12T05:27:37.303Z,2.20
2019-03-12T05:30:08.865Z,2.20
2019-03-12T05:32:38.552Z,2.10
2019-03-12T05:35:08.086Z,2.10
2019-03-12T05:37:37.179Z,2.10
2019-03-12T05:40:06.832Z,2.20
2019-03-12T05:42:35.732Z,2.30
2019-03-12T05:45:04.956Z,2.40
2019-03-12T05:47:34.616Z,2.50
2019-03-12T05:50:04.057Z,2.70
2019-03-12T05:52:33.086Z,2.80
2019-03-12T05:55:05.176Z,2.80
2019-03-12T05:57:34.620Z,2.70
2019-03-12T06:00:03.761Z,2.60
2019-03-12T06:02:33.248Z,2.60
2019-03-12T06:05:06.270Z,2.70
2019-03-12T06:07:35.342Z,2.80
2019-03-12T06:10:04.563Z,2.80
2019-03-12T06:12:33.981Z,2.80
2019-03-12T06:15:03.025Z,2.90
2019-03-12T06:17:32.540Z,3.10
2019-03-12T06:20:02.473Z,3.30
2019-03-12T06:22:32.384Z,3.30
2019-03-12T06:25:04.531Z,3.20
2019-03-12T06:27:33.482Z,3.20
2019-03-12T06:30:05.219Z,3.20
2019-03-12T06:32:53.430Z,3.20
2019-03-12T06:35:35.837Z,3.30
2019-03-12T06:38:17.828Z,3.50
2019-03-12T06:40:58.392Z,3.70
2019-03-12T06:43:46.679Z,3.90
2019-03-12T06:46:41.155Z,4.20
2019-03-12T06:49:15.161Z,4.50
2019-03-12T06:51:51.808Z,4.70
2019-03-12T06:54:40.764Z,5.00
2019-03-12T06:57:31.883Z,5.10
2019-03-12T07:00:32.082Z,5.10
2019-03-12T07:03:25.990Z,5.40
2019-03-12T07:06:14.020Z,5.90
2019-03-12T07:08:52.816Z,6.20
2019-03-12T07:11:35.599Z,6.40
2019-03-12T07:14:24.212Z,6.60
2019-03-12T07:17:03.655Z,6.60
2019-03-12T07:19:51.807Z,7.30
2019-03-12T07:22:49.687Z,7.80
2019-03-12T07:25:40.884Z,8.10
2019-03-12T07:28:28.612Z,8.50
2019-03-12T07:31:28.743Z,8.90
2019-03-12T07:34:04.512Z,9.10
2019-03-12T07:36:55.273Z,9.40
2019-03-12T07:39:41.892Z,9.60
2019-03-12T07:42:32.527Z,8.10
2019-03-12T07:45:16.037Z,7.30
2019-03-12T07:48:07.156Z,7.50
2019-03-12T07:50:54.565Z,7.50
2019-03-12T07:53:41.988Z,7.70
2019-03-12T07:56:24.975Z,7.80
2019-03-12T07:59:19.257Z,8.00
2019-03-12T08:02:07.546Z,8.00
2019-03-12T08:04:48.383Z,7.80
2019-03-12T08:07:35.741Z,8.20
2019-03-12T08:10:30.138Z,8.80
2019-03-12T08:13:17.747Z,9.00
2019-03-12T08:15:52.069Z,8.70
2019-03-12T08:18:39.925Z,9.10
2019-03-12T08:21:37.469Z,10.10
2019-03-12T08:24:18.653Z,11.00
2019-03-12T08:27:10.071Z,11.20
2019-03-12T08:29:45.843Z,11.70
2019-03-12T08:32:33.043Z,12.20
2019-03-12T08:35:20.528Z,12.20
2019-03-12T08:38:08.707Z,12.00
2019-03-12T08:40:52.779Z,11.50
2019-03-12T08:43:54.413Z,11.20
2019-03-12T08:46:35.700Z,10.40
2019-03-12T08:49:22.670Z,10.40
2019-03-12T08:52:06.652Z,10.10
2019-03-12T08:55:04.426Z,10.40
2019-03-12T08:58:04.583Z,10.70
2019-03-12T09:00:40.704Z,9.90
2019-03-12T09:03:27.644Z,9.90
2019-03-12T09:06:19.223Z,10.30
2019-03-12T09:09:07.469Z,10.50
2019-03-12T09:11:59.620Z,11.20
2019-03-12T09:14:47.866Z,11.30
2019-03-12T09:17:34.554Z,11.30
2019-03-12T09:20:26.407Z,10.60
2019-03-12T09:23:04.740Z,10.20
2019-03-12T09:25:51.205Z,10.30
2019-03-12T09:28:38.744Z,10.70
2019-03-12T09:31:34.535Z,10.90
2019-03-12T09:34:10.203Z,10.70
2019-03-12T09:36:57.131Z,10.30
2019-03-12T09:39:44.044Z,9.80
2019-03-12T09:42:35.361Z,9.50
2019-03-12T09:45:24.223Z,9.50
2019-03-12T09:48:03.449Z,10.00
2019-03-12T09:50:38.891Z,10.30
2019-03-12T09:53:14.539Z,10.10
2019-03-12T09:55:53.168Z,9.70
2019-03-12T09:58:30.448Z,9.70
2019-03-12T10:01:09.888Z,10.00
2019-03-12T10:03:54.823Z,9.80
2019-03-12T10:06:42.907Z,10.30
2019-03-12T10:09:32.981Z,10.30
2019-03-12T10:12:07.396Z,10.90
2019-03-12T10:14:56.355Z,10.90
2019-03-12T10:17:45.024Z,10.70
2019-03-12T10:20:25.967Z,10.20
2019-03-12T10:23:06.906Z,9.40
2019-03-12T10:26:01.370Z,9.70
2019-03-12T10:28:44.993Z,10.10
2019-03-12T10:31:42.372Z,10.20
2019-03-12T10:34:30.261Z,10.00
2019-03-12T10:37:12.535Z,10.70
2019-03-12T10:40:09.284Z,10.50
2019-03-12T10:42:54.196Z,10.40
2019-03-12T10:45:27.172Z,9.90
2019-03-12T10:47:56.792Z,9.80
2019-03-12T10:50:26.354Z,9.90
2019-03-12T10:52:55.696Z,10.00
2019-03-12T10:55:24.905Z,9.30
2019-03-12T10:57:54.202Z,8.90
2019-03-12T11:00:23.804Z,8.80
2019-03-12T11:02:52.996Z,9.20
2019-03-12T11:05:22.227Z,9.10
2019-03-12T11:07:51.496Z,9.20
2019-03-12T11:10:21.147Z,8.90
2019-03-12T11:12:51.022Z,9.10
2019-03-12T11:15:20.455Z,9.00
2019-03-12T11:17:50.464Z,9.00
2019-03-12T11:20:19.775Z,9.20
2019-03-12T11:22:49.068Z,9.10
2019-03-12T11:25:27.192Z,9.30
2019-03-12T11:27:48.835Z,9.00
2019-03-12T11:30:17.919Z,9.30
2019-03-12T11:32:47.472Z,9.60
2019-03-12T11:35:17.125Z,9.20
2019-03-12T11:37:45.963Z,9.00
2019-03-12T11:40:17.274Z,8.60
2019-03-12T11:42:46.775Z,8.30
2019-03-12T11:45:19.119Z,8.00
2019-03-12T11:47:47.494Z,8.10
2019-03-12T11:50:19.856Z,8.10
2019-03-12T11:52:55.636Z,7.90
2019-03-12T11:55:19.978Z,7.80
2019-03-12T11:57:49.341Z,7.60
2019-03-12T12:00:29.478Z,7.70
2019-03-12T12:03:00.388Z,8.00
2019-03-12T12:05:30.193Z,8.40
2019-03-12T12:07:59.797Z,8.20
2019-03-12T12:10:28.581Z,8.00
2019-03-12T12:12:57.559Z,8.20
2019-03-12T12:15:26.873Z,8.30
2019-03-12T12:17:55.669Z,8.20
2019-03-12T12:20:29.870Z,8.20
2019-03-12T12:22:56.415Z,8.00
2019-03-12T12:25:25.664Z,7.90
2019-03-12T12:27:55.220Z,7.70
2019-03-12T12:30:24.728Z,7.60
2019-03-12T12:32:53.924Z,7.70
2019-03-12T12:35:23.221Z,7.90
2019-03-12T12:37:52.900Z,8.40
2019-03-12T12:40:22.223Z,8.70
2019-03-12T12:42:51.536Z,8.70
2019-03-12T12:45:21.200Z,8.60
2019-03-12T12:47:49.995Z,8.80
2019-03-12T12:50:18.911Z,8.90
2019-03-12T12:52:47.837Z,9.10
2019-03-12T12:55:17.104Z,8.80
2019-03-12T12:57:46.936Z,8.90
2019-03-12T13:00:17.804Z,8.80
2019-03-12T13:02:47.025Z,8.90
2019-03-12T13:05:17.626Z,8.70
2019-03-12T13:07:46.579Z,8.50
2019-03-12T13:10:18.374Z,8.30
2019-03-12T13:12:47.540Z,8.10
2019-03-12T13:15:16.251Z,8.20
2019-03-12T13:17:45.207Z,8.60
2019-03-12T13:20:15.132Z,8.90
2019-03-12T13:22:44.333Z,9.20
2019-03-12T13:25:14.277Z,9.00
2019-03-12T13:27:44.179Z,9.00
2019-03-12T13:30:15.600Z,9.20
2019-03-12T13:32:44.836Z,8.60
2019-03-12T13:35:14.925Z,8.50
2019-03-12T13:37:44.434Z,8.70
2019-03-12T13:40:15.126Z,9.20
2019-03-12T13:42:44.712Z,9.20
2019-03-12T13:45:15.216Z,8.90
2019-03-12T13:47:45.438Z,8.50
2019-03-12T13:50:15.058Z,8.30
2019-03-12T13:52:44.645Z,8.20
2019-03-12T13:55:14.109Z,8.10
2019-03-12T13:57:44.608Z,8.10
2019-03-12T14:00:16.952Z,8.70
2019-03-12T14:02:45.935Z,8.70
2019-03-12T14:05:15.109Z,8.90
2019-03-12T14:07:44.436Z,9.00
2019-03-12T14:10:16.366Z,9.40
2019-03-12T14:12:45.798Z,9.30
2019-03-12T14:15:18.171Z,8.80
2019-03-12T14:17:47.737Z,8.70
2019-03-12T14:20:45.840Z,8.80
2019-03-12T14:23:17.666Z,8.50
2019-03-12T14:25:47.216Z,8.50
2019-03-12T14:28:16.164Z,9.10
2019-03-12T14:30:45.718Z,9.40
2019-03-12T14:33:15.768Z,9.40
2019-03-12T14:35:51.512Z,9.20
2019-03-12T14:38:16.324Z,8.80
2019-03-12T14:40:45.921Z,8.30
2019-03-12T14:43:14.912Z,8.30
2019-03-12T14:45:47.784Z,8.70
2019-03-12T14:48:48.233Z,9.20
2019-03-12T14:51:35.748Z,9.50
2019-03-12T14:54:05.128Z,9.10
2019-03-12T14:56:34.416Z,8.50
2019-03-12T14:59:05.599Z,8.50
2019-03-12T15:01:34.873Z,8.50
2019-03-12T15:04:04.885Z,8.60
2019-03-12T15:06:34.497Z,8.50
2019-03-12T15:09:05.424Z,8.20
2019-03-12T15:11:34.620Z,8.20
2019-03-12T15:14:04.682Z,8.30
2019-03-12T15:16:34.350Z,8.30
2019-03-12T15:19:04.980Z,8.10
2019-03-12T15:21:33.759Z,8.20
2019-03-12T15:24:03.528Z,8.60
2019-03-12T15:26:33.135Z,8.30
2019-03-12T15:29:02.197Z,7.90
2019-03-12T15:31:31.792Z,8.10
2019-03-12T15:34:05.301Z,8.30
2019-03-12T15:36:34.971Z,8.40
2019-03-12T15:39:05.716Z,8.20
2019-03-12T15:41:35.142Z,7.90
2019-03-12T15:44:04.215Z,7.80
2019-03-12T15:46:33.491Z,7.90
2019-03-12T15:49:02.819Z,7.90
2019-03-12T15:51:32.085Z,7.80
2019-03-12T15:54:06.276Z,7.80
2019-03-12T15:56:35.875Z,7.70
2019-03-12T15:59:05.461Z,7.60
2019-03-12T16:01:34.260Z,7.50
2019-03-12T16:04:03.208Z,7.80
2019-03-12T16:06:32.783Z,7.70
2019-03-12T16:09:04.400Z,7.50
2019-03-12T16:11:33.920Z,7.50
2019-03-12T16:14:03.408Z,7.40
2019-03-12T16:16:32.647Z,7.50
2019-03-12T16:19:01.826Z,7.30
2019-03-12T16:21:31.340Z,7.10
2019-03-12T16:24:01.033Z,7.10
2019-03-12T16:26:30.828Z,7.10
2019-03-12T16:29:00.195Z,7.00
2019-03-12T16:31:29.258Z,6.90
2019-03-12T16:33:58.360Z,6.90
2019-03-12T16:36:27.255Z,6.90
2019-03-12T16:38:56.220Z,6.80
2019-03-12T16:41:26.407Z,6.90
2019-03-12T16:43:55.147Z,6.90
2019-03-12T16:46:25.136Z,6.80
2019-03-12T16:48:53.993Z,6.70
2019-03-12T16:51:22.868Z,6.70
2019-03-12T16:53:51.761Z,6.70
2019-03-12T16:56:20.936Z,6.60
2019-03-12T16:58:50.300Z,6.60
2019-03-12T17:01:19.507Z,6.60
2019-03-12T17:03:48.656Z,6.60
2019-03-12T17:06:17.892Z,6.70
2019-03-12T17:08:47.195Z,6.50
2019-03-12T17:11:16.508Z,6.50
2019-03-12T17:13:46.300Z,6.60
2019-03-12T17:16:15.513Z,6.50
2019-03-12T17:18:45.116Z,6.50
2019-03-12T17:21:14.923Z,6.50
2019-03-12T17:23:44.116Z,6.50
2019-03-12T17:26:13.321Z,6.50
2019-03-12T17:28:42.412Z,6.50
2019-03-12T17:31:11.366Z,6.50
2019-03-12T17:33:40.320Z,6.50
2019-03-12T17:36:09.620Z,6.60
2019-03-12T17:38:46.708Z,6.60
2019-03-12T17:41:09.945Z,6.60
2019-03-12T17:43:39.179Z,6.60
2019-03-12T17:46:09.124Z,6.60
2019-03-12T17:48:37.919Z,6.60
2019-03-12T17:51:07.188Z,6.60
2019-03-12T17:53:36.082Z,6.70
2019-03-12T17:56:05.339Z,6.70
2019-03-12T17:58:34.542Z,6.70
2019-03-12T18:01:05.824Z,6.70
2019-03-12T18:03:35.276Z,6.70
2019-03-12T18:06:04.886Z,6.70
2019-03-12T18:08:34.400Z,6.70
2019-03-12T18:11:05.518Z,6.70
2019-03-12T18:13:34.494Z,6.80
2019-03-12T18:16:05.482Z,6.80
2019-03-12T18:18:34.972Z,6.80
2019-03-12T18:21:04.612Z,6.80
2019-03-12T18:23:33.517Z,6.90
2019-03-12T18:26:03.551Z,6.80
2019-03-12T18:28:33.090Z,6.90
2019-03-12T18:31:02.407Z,6.90
2019-03-12T18:33:31.593Z,6.90
2019-03-12T18:36:05.909Z,6.90
2019-03-12T18:38:35.432Z,7.00
2019-03-12T18:41:05.232Z,7.00
2019-03-12T18:43:34.222Z,7.10
2019-03-12T18:46:03.728Z,7.10
2019-03-12T18:48:32.825Z,7.10
2019-03-12T18:51:02.431Z,7.10
2019-03-12T18:53:31.932Z,7.10
2019-03-12T18:56:08.746Z,7.20
2019-03-12T18:58:37.807Z,7.30
2019-03-12T19:01:11.637Z,7.40
2019-03-12T19:03:41.217Z,7.40
2019-03-12T19:06:10.468Z,7.40
2019-03-12T19:08:40.020Z,7.40
2019-03-12T19:11:09.735Z,7.40
2019-03-12T19:13:40.531Z,7.50
2019-03-12T19:16:10.150Z,7.50
2019-03-12T19:18:39.071Z,7.50
2019-03-12T19:21:08.545Z,7.50
2019-03-12T19:23:37.979Z,7.60
2019-03-12T19:26:08.953Z,7.60
2019-03-12T19:28:38.218Z,7.60
2019-03-12T19:31:32.701Z,7.70
2019-03-12T19:34:07.051Z,7.70
2019-03-12T19:36:36.226Z,7.60
2019-03-12T19:39:10.514Z,7.70
2019-03-12T19:41:40.114Z,7.70
2019-03-12T19:44:09.337Z,7.70
2019-03-12T19:46:38.535Z,7.60
2019-03-12T19:49:07.751Z,7.50
2019-03-12T19:51:37.038Z,7.50
2019-03-12T19:54:06.249Z,7.50
2019-03-12T19:56:36.420Z,7.50
2019-03-12T19:59:05.956Z,7.60
2019-03-12T20:01:36.459Z,7.60
2019-03-12T20:04:06.002Z,7.70
2019-03-12T20:06:35.305Z,7.70
2019-03-12T20:09:06.092Z,7.70
2019-03-12T20:12:11.047Z,7.70
2019-03-12T20:15:29.501Z,7.80
2019-03-12T20:18:44.325Z,7.90
2019-03-12T20:21:36.719Z,7.90
2019-03-12T20:24:41.628Z,8.00
2019-03-12T20:27:47.612Z,8.10
2019-03-12T20:31:09.560Z,8.00
2019-03-12T20:34:08.655Z,7.90
2019-03-12T20:37:23.868Z,8.00
2019-03-12T20:40:35.933Z,8.00
2019-03-12T20:43:57.259Z,8.00
2019-03-12T20:47:12.942Z,8.20
2019-03-12T20:50:28.736Z,8.00
2019-03-12T20:53:25.869Z,8.10
2019-03-12T20:56:29.488Z,8.00
2019-03-12T20:59:50.713Z,8.00
2019-03-12T21:03:13.460Z,8.00
2019-03-12T21:06:31.609Z,8.00
2019-03-12T21:09:36.504Z,8.00
2019-03-12T21:12:48.748Z,8.00
2019-03-12T21:16:02.484Z,8.00
2019-03-12T21:19:27.809Z,8.10
2019-03-12T21:22:36.693Z,8.00
2019-03-12T21:25:32.812Z,8.00
2019-03-12T21:28:48.340Z,8.10
2019-03-12T21:31:17.852Z,8.10
2019-03-12T21:33:47.471Z,8.10
2019-03-12T21:36:17.372Z,8.10
2019-03-12T21:38:46.192Z,8.20
2019-03-12T21:41:15.157Z,8.20
2019-03-12T21:43:44.383Z,8.30
2019-03-12T21:46:13.402Z,8.30
2019-03-12T21:48:42.860Z,8.30
2019-03-12T21:51:12.298Z,8.40
2019-03-12T21:53:41.552Z,8.40
2019-03-12T21:56:10.467Z,8.40
2019-03-12T21:58:39.359Z,8.50
2019-03-12T22:01:08.680Z,8.50
2019-03-12T22:03:37.467Z,8.50
2019-03-12T22:06:07.024Z,8.50
2019-03-12T22:08:35.813Z,8.50
2019-03-12T22:11:05.053Z,8.60
2019-03-12T22:13:34.392Z,8.60
2019-03-12T22:16:03.636Z,8.60
2019-03-12T22:18:32.819Z,8.60
2019-03-12T22:21:02.037Z,8.70
2019-03-12T22:23:35.093Z,8.70
2019-03-12T22:26:04.908Z,8.70
2019-03-12T22:28:34.164Z,8.80
2019-03-12T22:31:03.928Z,8.70
2019-03-12T22:33:33.424Z,8.80
2019-03-12T22:36:02.249Z,8.70
2019-03-12T22:38:33.049Z,8.70
2019-03-12T22:41:02.548Z,8.80
2019-03-12T22:43:31.700Z,8.70
2019-03-12T22:46:00.527Z,8.70
2019-03-12T22:48:29.778Z,8.70
2019-03-12T22:50:58.834Z,8.60
2019-03-12T22:53:27.924Z,8.60
2019-03-12T22:55:57.232Z,8.50
2019-03-12T22:58:26.732Z,8.40
2019-03-12T23:00:56.755Z,8.40
2019-03-12T23:03:26.051Z,8.30
2019-03-12T23:05:55.656Z,8.30
2019-03-12T23:08:25.187Z,8.20
2019-03-12T23:10:54.980Z,8.00
2019-03-12T23:13:24.645Z,7.70
2019-03-12T23:15:54.087Z,7.40
2019-03-12T23:18:23.287Z,7.20
2019-03-12T23:20:52.690Z,7.00
2019-03-12T23:23:22.040Z,6.80
2019-03-12T23:25:51.297Z,6.70
2019-03-12T23:28:20.888Z,6.60
2019-03-12T23:30:50.046Z,6.00
2019-03-12T23:33:19.589Z,5.40
2019-03-12T23:35:49.248Z,4.90
2019-03-12T23:38:18.607Z,4.60
2019-03-12T23:40:48.011Z,4.40
2019-03-12T23:43:17.783Z,4.40
2019-03-12T23:45:47.327Z,4.40
2019-03-12T23:48:17.249Z,4.30
2019-03-12T23:50:46.491Z,4.20
2019-03-12T23:53:16.499Z,4.20
2019-03-12T23:55:45.696Z,4.10
2019-03-12T23:58:15.308Z,4.10
